FMO weather

Münster Osnabrück Airport
Münster, North Rhine-Westphalia, Germany

Public forecast

Using degrees Celsius for public forecast. Weather courtesy of forecast.io.

METAR (pilot weather report)

Retrieved 2017/12/16 17:20 UTC (0 seconds ago):

EDDG 161720Z 27008KT 9999 FEW012 BKN016 03/02 Q1012 NOSIG

TAF (pilot weather forecast)

Retrieved 2017/12/16 12:27 UTC (5 hours ago):

TAF EDDG 161100Z 1612/1712 28007KT 9999 SCT030 TEMPO 1615/1618 4000 -SHRA BKN012TCU BECMG 1700/1702 BKN007 BECMG 1708/1711 SCT020